createdAt,value
2022-09-28T00:01:13.753Z,13.21
2022-09-28T00:03:40.379Z,13.25
2022-09-28T00:06:10.081Z,13.20
2022-09-28T00:08:37.373Z,13.21
2022-09-28T00:11:06.507Z,13.17
2022-09-28T00:13:34.105Z,13.18
2022-09-28T00:16:10.617Z,13.24
2022-09-28T00:18:37.531Z,13.33
2022-09-28T00:21:12.285Z,13.35
2022-09-28T00:23:59.996Z,13.36
2022-09-28T00:26:28.083Z,13.44
2022-09-28T00:28:56.879Z,13.44
2022-09-28T00:31:25.065Z,13.39
2022-09-28T00:33:53.295Z,13.37
2022-09-28T00:36:19.892Z,13.36
2022-09-28T00:38:46.549Z,13.37
2022-09-28T00:41:14.123Z,13.29
2022-09-28T00:43:41.373Z,13.32
2022-09-28T00:46:15.316Z,13.30
2022-09-28T00:48:54.813Z,13.25
2022-09-28T00:51:22.715Z,13.17
2022-09-28T00:53:51.213Z,13.12
2022-09-28T00:56:21.684Z,13.16
2022-09-28T00:58:52.973Z,13.20
2022-09-28T01:01:19.521Z,13.19
2022-09-28T01:03:48.800Z,13.17
2022-09-28T01:06:20.586Z,13.15
2022-09-28T01:08:50.826Z,13.10
2022-09-28T01:11:19.613Z,13.09
2022-09-28T01:13:50.053Z,13.06
2022-09-28T01:16:33.818Z,13.09
2022-09-28T01:19:34.474Z,13.08
2022-09-28T01:22:26.395Z,13.09
2022-09-28T01:25:20.969Z,13.05
2022-09-28T01:27:54.881Z,13.02
2022-09-28T01:30:22.245Z,12.94
2022-09-28T01:32:56.000Z,12.92
2022-09-28T01:35:44.388Z,12.85
2022-09-28T01:38:26.778Z,12.87
2022-09-28T01:40:55.731Z,12.86
2022-09-28T01:43:30.368Z,12.86
2022-09-28T01:46:05.048Z,12.79
2022-09-28T01:48:51.441Z,12.74
2022-09-28T01:51:42.438Z,12.67
2022-09-28T01:54:28.222Z,12.65
2022-09-28T01:57:00.591Z,12.74
2022-09-28T01:59:30.827Z,12.76
2022-09-28T02:02:18.768Z,12.74
2022-09-28T02:04:55.702Z,12.74
2022-09-28T02:07:42.459Z,12.71
2022-09-28T02:10:22.094Z,12.67
2022-09-28T02:12:59.513Z,12.69
2022-09-28T02:16:01.401Z,12.72
2022-09-28T02:18:29.471Z,12.68
2022-09-28T02:21:07.050Z,12.72
2022-09-28T02:23:37.362Z,12.71
2022-09-28T02:26:10.313Z,12.69
2022-09-28T02:28:37.284Z,12.70
2022-09-28T02:31:07.320Z,12.76
2022-09-28T02:33:41.286Z,12.78
2022-09-28T02:36:08.547Z,12.74
2022-09-28T02:38:38.195Z,12.79
2022-09-28T02:41:31.722Z,12.85
2022-09-28T02:44:26.567Z,12.86
2022-09-28T02:47:08.716Z,12.85
2022-09-28T02:49:49.498Z,12.64
2022-09-28T02:52:31.358Z,12.41
2022-09-28T02:55:07.278Z,12.47
2022-09-28T02:57:45.925Z,12.29
2022-09-28T03:00:20.138Z,12.25
2022-09-28T03:03:22.172Z,12.16
2022-09-28T03:06:03.909Z,12.31
2022-09-28T03:08:54.917Z,12.33
2022-09-28T03:11:37.752Z,12.41
2022-09-28T03:14:05.545Z,12.36
2022-09-28T03:16:46.542Z,12.18
2022-09-28T03:19:14.022Z,12.30
2022-09-28T03:21:41.513Z,12.34
2022-09-28T03:24:11.161Z,12.26
2022-09-28T03:26:41.191Z,12.08
2022-09-28T03:29:08.359Z,12.12
2022-09-28T03:31:37.986Z,12.11
2022-09-28T03:34:04.724Z,12.06
2022-09-28T03:36:32.092Z,12.10
2022-09-28T03:38:59.659Z,12.15
2022-09-28T03:41:30.141Z,12.28
2022-09-28T03:43:57.036Z,12.41
2022-09-28T03:46:26.592Z,12.44
2022-09-28T03:48:58.471Z,12.34
2022-09-28T03:51:27.784Z,12.31
2022-09-28T03:53:54.889Z,12.30
2022-09-28T03:56:21.844Z,12.35
2022-09-28T03:58:48.907Z,12.36
2022-09-28T04:01:17.532Z,12.40
2022-09-28T04:03:47.176Z,12.38
2022-09-28T04:06:14.842Z,12.45
2022-09-28T04:08:43.663Z,12.47
2022-09-28T04:11:11.362Z,12.53
2022-09-28T04:13:38.307Z,12.51
2022-09-28T04:16:08.041Z,12.54
2022-09-28T04:18:36.161Z,12.61
2022-09-28T04:21:19.454Z,12.62
2022-09-28T04:23:53.440Z,12.49
2022-09-28T04:26:24.415Z,12.39
2022-09-28T04:29:10.290Z,12.43
2022-09-28T04:31:56.470Z,12.11
2022-09-28T04:34:37.138Z,11.99
2022-09-28T04:37:05.509Z,11.96
2022-09-28T04:39:32.206Z,12.01
2022-09-28T04:42:01.301Z,11.95
2022-09-28T04:44:28.694Z,11.95
2022-09-28T04:47:04.201Z,12.03
2022-09-28T04:49:33.754Z,12.21
2022-09-28T04:52:12.557Z,12.34
2022-09-28T04:54:43.356Z,12.18
2022-09-28T04:57:11.612Z,11.97
2022-09-28T04:59:39.641Z,11.88
2022-09-28T05:02:07.047Z,11.77
2022-09-28T05:05:09.439Z,11.68
2022-09-28T05:07:58.707Z,11.53
2022-09-28T05:10:25.369Z,11.38
2022-09-28T05:12:53.113Z,11.40
2022-09-28T05:15:19.793Z,11.51
2022-09-28T05:17:47.725Z,11.54
2022-09-28T05:20:39.613Z,11.45
2022-09-28T05:23:08.395Z,11.42
2022-09-28T05:25:36.459Z,11.46
2022-09-28T05:28:20.193Z,11.31
2022-09-28T05:31:07.711Z,11.54
2022-09-28T05:33:57.290Z,11.41
2022-09-28T05:36:26.903Z,11.22
2022-09-28T05:38:54.034Z,11.54
2022-09-28T05:41:20.723Z,11.61
2022-09-28T05:43:47.418Z,11.54
2022-09-28T05:46:14.559Z,11.53
2022-09-28T05:48:41.688Z,11.45
2022-09-28T05:51:10.115Z,11.65
2022-09-28T05:53:39.654Z,11.73
2022-09-28T05:56:07.138Z,11.74
2022-09-28T05:58:36.541Z,11.78
2022-09-28T06:01:03.192Z,11.78
2022-09-28T06:03:30.468Z,11.95
2022-09-28T06:05:59.834Z,11.98
2022-09-28T06:08:26.484Z,11.99
2022-09-28T06:11:06.777Z,12.05
2022-09-28T06:13:34.343Z,12.10
2022-09-28T06:16:01.322Z,12.11
2022-09-28T06:18:28.240Z,12.12
2022-09-28T06:21:19.081Z,11.98
2022-09-28T06:23:49.141Z,12.00
2022-09-28T06:26:17.266Z,12.07
2022-09-28T06:28:44.766Z,12.13
2022-09-28T06:31:11.804Z,12.06
2022-09-28T06:33:46.164Z,12.10
2022-09-28T06:36:13.464Z,12.19
2022-09-28T06:38:40.336Z,12.27
2022-09-28T06:41:07.192Z,12.25
2022-09-28T06:43:35.143Z,12.26
2022-09-28T06:46:31.483Z,12.35
2022-09-28T06:49:30.349Z,12.45
2022-09-28T06:52:20.113Z,12.46
2022-09-28T06:55:06.578Z,12.50
2022-09-28T06:57:44.606Z,12.50
2022-09-28T07:00:12.086Z,12.51
2022-09-28T07:02:38.871Z,12.46
2022-09-28T07:05:29.889Z,12.48
2022-09-28T07:08:26.380Z,12.45
2022-09-28T07:11:12.443Z,12.44
2022-09-28T07:13:52.153Z,12.47
2022-09-28T07:16:26.929Z,12.45
2022-09-28T07:18:55.292Z,12.40
2022-09-28T07:21:28.770Z,12.35
2022-09-28T07:23:57.069Z,12.39
2022-09-28T07:26:24.700Z,12.42
2022-09-28T07:29:14.622Z,12.40
2022-09-28T07:32:01.725Z,12.35
2022-09-28T07:35:07.971Z,12.21
2022-09-28T07:37:45.891Z,12.16
2022-09-28T07:40:31.129Z,11.90
2022-09-28T07:43:07.049Z,12.21
2022-09-28T07:45:36.776Z,12.08
2022-09-28T07:48:04.569Z,12.00
2022-09-28T07:50:52.821Z,11.60
2022-09-28T07:53:54.814Z,12.18
2022-09-28T07:56:47.870Z,11.90
2022-09-28T07:59:39.670Z,11.69
2022-09-28T08:02:25.977Z,12.09
2022-09-28T08:04:56.320Z,11.87
2022-09-28T08:07:24.237Z,11.58
2022-09-28T08:09:58.135Z,11.60
2022-09-28T08:12:27.737Z,11.71
2022-09-28T08:15:19.726Z,12.28
2022-09-28T08:17:53.062Z,12.62
2022-09-28T08:20:41.445Z,12.55
2022-09-28T08:23:09.558Z,12.52
2022-09-28T08:25:53.988Z,12.24
2022-09-28T08:28:23.216Z,12.24
2022-09-28T08:30:54.489Z,12.50
2022-09-28T08:33:45.082Z,12.51
2022-09-28T08:36:30.473Z,12.41
2022-09-28T08:39:15.618Z,12.32
2022-09-28T08:42:28.205Z,12.10
2022-09-28T08:45:26.382Z,11.83
2022-09-28T08:48:52.216Z,12.01
2022-09-28T08:52:04.639Z,12.02
2022-09-28T08:54:51.769Z,12.36
2022-09-28T08:57:39.437Z,12.55
2022-09-28T09:00:10.994Z,12.33
2022-09-28T09:02:39.913Z,12.47
2022-09-28T09:05:21.215Z,12.45
2022-09-28T09:08:07.765Z,12.09
2022-09-28T09:10:54.954Z,12.56
2022-09-28T09:14:03.027Z,12.76
2022-09-28T09:16:42.318Z,12.98
2022-09-28T09:19:50.580Z,13.10
2022-09-28T09:22:41.314Z,13.05
2022-09-28T09:25:29.068Z,13.11
2022-09-28T09:28:23.676Z,12.81
2022-09-28T09:30:56.897Z,13.02
2022-09-28T09:33:46.202Z,13.03
2022-09-28T09:37:11.307Z,12.69
2022-09-28T09:40:42.907Z,12.97
2022-09-28T09:44:05.587Z,13.25
2022-09-28T09:47:15.341Z,13.22
2022-09-28T09:50:05.527Z,13.18
2022-09-28T09:52:57.461Z,13.33
2022-09-28T09:55:31.015Z,13.44
2022-09-28T09:58:54.120Z,13.42
2022-09-28T10:01:50.412Z,13.36
2022-09-28T10:05:00.356Z,13.48
2022-09-28T10:08:10.568Z,13.47
2022-09-28T10:10:52.284Z,13.51
2022-09-28T10:13:21.563Z,13.49
2022-09-28T10:15:54.451Z,13.49
2022-09-28T10:21:31.987Z,13.54
2022-09-28T10:27:59.788Z,13.41
2022-09-28T10:33:59.095Z,13.49
2022-09-28T10:36:26.335Z,13.59
2022-09-28T10:38:54.506Z,13.79
2022-09-28T10:41:32.325Z,13.69
2022-09-28T10:44:11.369Z,13.65
2022-09-28T10:47:09.962Z,13.20
2022-09-28T10:49:46.858Z,13.50
2022-09-28T10:52:40.386Z,13.32
2022-09-28T10:55:32.414Z,13.54
2022-09-28T10:58:17.372Z,13.40
2022-09-28T11:00:45.186Z,13.03
2022-09-28T11:03:29.184Z,12.90
2022-09-28T11:06:08.633Z,13.25
2022-09-28T11:08:42.116Z,12.85
2022-09-28T11:11:19.468Z,13.12
2022-09-28T11:14:01.266Z,13.38
2022-09-28T11:16:37.700Z,13.53
2022-09-28T11:19:21.196Z,13.20
2022-09-28T11:24:37.941Z,13.27
2022-09-28T11:27:05.508Z,13.40
2022-09-28T11:29:38.909Z,13.44
2022-09-28T11:32:44.771Z,13.12
2022-09-28T11:35:46.394Z,13.23
2022-09-28T11:44:08.160Z,13.16
2022-09-28T12:05:37.161Z,13.29
2022-09-28T12:08:12.083Z,13.39
2022-09-28T12:11:12.781Z,13.27
2022-09-28T12:14:21.671Z,12.77
2022-09-28T12:17:07.942Z,13.29
2022-09-28T12:19:49.475Z,13.21
2022-09-28T12:22:59.429Z,13.33
2022-09-28T13:34:50.917Z,13.04
2022-09-28T13:37:26.456Z,13.02
2022-09-28T13:39:59.642Z,13.00
2022-09-28T13:48:17.539Z,13.01
2022-09-28T13:51:10.805Z,13.01
2022-09-28T13:54:08.061Z,13.00
2022-09-28T14:05:23.071Z,13.06
2022-09-28T14:08:08.625Z,13.09
2022-09-28T14:11:25.013Z,13.18
2022-09-28T14:14:05.775Z,13.16
2022-09-28T14:57:08.473Z,12.85
2022-09-28T14:59:46.137Z,12.78
2022-09-28T15:02:20.197Z,12.84
2022-09-28T15:05:02.475Z,12.80
2022-09-28T15:07:34.507Z,12.92
2022-09-28T15:10:02.647Z,12.96
2022-09-28T15:12:31.167Z,12.98
2022-09-28T15:18:05.265Z,13.07
2022-09-28T15:20:44.866Z,13.04
2022-09-28T15:23:27.330Z,13.17
2022-09-28T15:25:56.135Z,13.06
2022-09-28T15:28:33.794Z,12.99
2022-09-28T15:31:03.452Z,12.88
2022-09-28T15:33:52.071Z,12.79
2022-09-28T15:36:24.522Z,12.90
2022-09-28T15:38:59.693Z,12.88
2022-09-28T15:41:30.003Z,12.86
2022-09-28T15:47:31.456Z,12.86
2022-09-28T15:50:05.392Z,12.90
2022-09-28T15:55:33.114Z,12.83
2022-09-28T15:58:19.643Z,12.80
2022-09-28T16:00:52.270Z,12.84
2022-09-28T16:03:29.328Z,12.72
2022-09-28T16:05:59.026Z,12.64
2022-09-28T16:08:45.273Z,12.60
2022-09-28T16:11:20.353Z,12.58
2022-09-28T16:14:06.178Z,12.47
2022-09-28T16:16:50.747Z,12.36
2022-09-28T16:19:40.495Z,12.24
2022-09-28T16:22:14.030Z,12.12
2022-09-28T16:24:42.703Z,12.16
2022-09-28T16:27:30.505Z,11.95
2022-09-28T16:30:04.738Z,11.89
2022-09-28T16:32:38.520Z,11.85
2022-09-28T16:35:11.224Z,11.78
2022-09-28T16:37:40.878Z,11.67
2022-09-28T16:40:08.886Z,11.66
2022-09-28T16:42:36.703Z,11.63
2022-09-28T16:45:05.245Z,11.61
2022-09-28T16:47:34.164Z,11.65
2022-09-28T16:50:03.958Z,11.67
2022-09-28T16:52:49.310Z,11.61
2022-09-28T16:55:36.226Z,11.55
2022-09-28T16:58:04.642Z,11.58
2022-09-28T17:00:31.840Z,11.64
2022-09-28T17:02:59.200Z,11.62
2022-09-28T17:05:26.317Z,11.63
2022-09-28T17:08:04.186Z,11.59
2022-09-28T17:11:09.382Z,11.53
2022-09-28T17:13:35.971Z,11.46
2022-09-28T17:16:18.763Z,11.46
2022-09-28T17:18:46.039Z,11.48
2022-09-28T17:21:18.810Z,11.46
2022-09-28T17:23:47.454Z,11.51
2022-09-28T17:26:29.253Z,11.53
2022-09-28T17:28:55.769Z,11.54
2022-09-28T17:31:22.749Z,11.59
2022-09-28T17:33:50.065Z,11.58
2022-09-28T17:36:19.742Z,11.51
2022-09-28T17:38:51.803Z,11.49
2022-09-28T17:41:20.802Z,11.49
2022-09-28T17:43:48.349Z,11.40
2022-09-28T17:46:37.005Z,11.37
2022-09-28T17:49:06.209Z,11.36
2022-09-28T17:51:39.131Z,11.38
2022-09-28T17:54:07.973Z,11.40
2022-09-28T17:56:35.808Z,11.43
2022-09-28T17:59:06.092Z,11.45
2022-09-28T18:01:34.479Z,11.44
2022-09-28T18:04:03.049Z,11.47
2022-09-28T18:06:29.837Z,11.38
2022-09-28T18:08:56.425Z,11.51
2022-09-28T18:11:23.365Z,11.69
2022-09-28T18:13:50.052Z,11.66
2022-09-28T18:16:17.198Z,11.69
2022-09-28T18:18:43.826Z,11.66
2022-09-28T18:21:10.509Z,11.64
2022-09-28T18:23:38.324Z,11.65
2022-09-28T18:26:13.069Z,11.64
2022-09-28T18:28:40.210Z,11.60
2022-09-28T18:31:12.162Z,11.61
2022-09-28T18:33:39.610Z,11.66
2022-09-28T18:36:07.348Z,11.66
2022-09-28T18:38:38.159Z,11.79
2022-09-28T18:43:49.014Z,11.46
2022-09-28T18:46:17.627Z,11.37
2022-09-28T18:48:44.597Z,11.59
2022-09-28T18:51:12.406Z,11.61
2022-09-28T18:53:40.039Z,11.39
2022-09-28T18:56:12.025Z,11.27
2022-09-28T18:58:40.178Z,11.24
2022-09-28T19:01:28.827Z,11.17
2022-09-28T19:03:55.932Z,11.26
2022-09-28T19:06:22.463Z,11.33
2022-09-28T19:08:55.481Z,11.37
2022-09-28T19:11:23.243Z,11.33
2022-09-28T19:13:50.377Z,11.41
2022-09-28T19:16:20.827Z,11.32
2022-09-28T19:18:48.172Z,11.29
2022-09-28T19:21:15.181Z,11.16
2022-09-28T19:23:49.037Z,11.19
2022-09-28T19:26:20.375Z,11.18
2022-09-28T19:28:47.573Z,11.20
2022-09-28T19:31:14.205Z,11.23
2022-09-28T19:33:41.744Z,11.14
2022-09-28T19:36:11.127Z,11.07
2022-09-28T19:38:39.211Z,10.97
2022-09-28T19:41:37.791Z,10.95
2022-09-28T19:44:13.050Z,11.03
2022-09-28T19:46:40.709Z,11.01
2022-09-28T19:49:10.514Z,10.98
2022-09-28T19:51:46.951Z,10.88
2022-09-28T19:54:30.995Z,10.91
2022-09-28T19:56:59.866Z,10.84
2022-09-28T19:59:26.452Z,10.83
2022-09-28T20:01:56.230Z,10.78
2022-09-28T20:04:23.209Z,10.87
2022-09-28T20:06:52.790Z,10.82
2022-09-28T20:09:19.650Z,10.81
2022-09-28T20:11:46.741Z,10.73
2022-09-28T20:14:18.567Z,10.79
2022-09-28T20:16:48.465Z,10.86
2022-09-28T20:19:15.441Z,10.80
2022-09-28T20:21:42.044Z,10.88
2022-09-28T20:24:11.229Z,10.86
2022-09-28T20:26:37.990Z,10.81
2022-09-28T20:29:06.646Z,10.87
2022-09-28T20:31:40.126Z,10.91
2022-09-28T20:34:07.139Z,10.92
2022-09-28T20:36:34.185Z,10.93
2022-09-28T20:39:01.993Z,10.89
2022-09-28T20:41:35.653Z,10.90
2022-09-28T20:44:05.788Z,10.94
2022-09-28T20:46:36.550Z,10.93
2022-09-28T20:49:04.209Z,10.77
2022-09-28T20:51:31.018Z,10.69
2022-09-28T20:53:59.023Z,10.40
2022-09-28T20:56:38.709Z,10.39
2022-09-28T20:59:08.431Z,10.50
2022-09-28T21:01:35.393Z,10.37
2022-09-28T21:04:04.583Z,10.35
2022-09-28T21:06:34.311Z,10.22
2022-09-28T21:09:01.230Z,10.12
2022-09-28T21:11:29.638Z,10.29
2022-09-28T21:14:02.157Z,10.47
2022-09-28T21:16:31.248Z,10.36
2022-09-28T21:18:58.228Z,10.47
2022-09-28T21:21:26.121Z,10.57
2022-09-28T21:23:55.312Z,10.36
2022-09-28T21:26:25.057Z,10.50
2022-09-28T21:29:03.577Z,10.82
2022-09-28T21:31:38.492Z,10.79
2022-09-28T21:34:05.635Z,10.79
2022-09-28T21:36:32.336Z,10.69
2022-09-28T21:38:58.927Z,10.79
2022-09-28T21:41:25.753Z,10.68
2022-09-28T21:43:52.585Z,10.74
2022-09-28T21:46:19.377Z,10.73
2022-09-28T21:48:46.043Z,10.62
2022-09-28T21:51:19.252Z,10.50
2022-09-28T21:53:45.848Z,10.44
2022-09-28T21:56:13.035Z,10.10
2022-09-28T21:58:42.087Z,10.22
2022-09-28T22:01:20.534Z,10.24
2022-09-28T22:03:50.431Z,10.20
2022-09-28T22:06:18.954Z,10.14
2022-09-28T22:08:46.882Z,9.98
2022-09-28T22:11:18.887Z,9.93
2022-09-28T22:13:49.998Z,10.01
2022-09-28T22:16:18.775Z,10.05
2022-09-28T22:18:46.071Z,10.10
2022-09-28T22:21:15.537Z,10.06
2022-09-28T22:23:42.536Z,10.18
2022-09-28T22:26:28.482Z,10.18
2022-09-28T22:28:59.712Z,10.17
2022-09-28T22:31:29.395Z,10.28
2022-09-28T22:33:56.478Z,10.41
2022-09-28T22:36:23.858Z,10.44
2022-09-28T22:38:50.917Z,10.13
2022-09-28T22:41:20.883Z,10.25
2022-09-28T22:43:57.780Z,10.20
2022-09-28T22:46:29.368Z,10.06
2022-09-28T22:48:58.215Z,10.11
2022-09-28T22:51:27.335Z,10.08
2022-09-28T22:53:54.292Z,10.01
2022-09-28T22:56:20.874Z,9.76
2022-09-28T22:58:47.665Z,9.84
2022-09-28T23:01:20.294Z,9.98
2022-09-28T23:03:48.140Z,10.10
2022-09-28T23:06:21.400Z,10.05
2022-09-28T23:08:51.399Z,10.07
2022-09-28T23:11:19.019Z,10.11
2022-09-28T23:13:50.439Z,9.88
2022-09-28T23:16:17.496Z,9.96
2022-09-28T23:18:44.181Z,9.54
2022-09-28T23:21:19.945Z,9.43
2022-09-28T23:23:52.351Z,9.61
2022-09-28T23:26:25.010Z,9.61
2022-09-28T23:28:52.728Z,9.68
2022-09-28T23:31:31.610Z,9.72
2022-09-28T23:34:06.701Z,9.78
2022-09-28T23:36:35.864Z,9.73
2022-09-28T23:39:03.117Z,9.48
2022-09-28T23:41:35.489Z,9.66
2022-09-28T23:44:02.306Z,9.89
2022-09-28T23:46:29.115Z,9.65
2022-09-28T23:48:55.834Z,9.82
2022-09-28T23:51:22.458Z,9.50
2022-09-28T23:53:49.092Z,9.56
2022-09-28T23:56:15.777Z,9.56
2022-09-28T23:58:42.712Z,9.53
